Time;durP1;ratioP1;P1;durP2;ratioP2;P2;SDS_P1;SDS_P2;PMS_P1;PMS_P2;Temp;Humidity;BMP_temperature;BMP_pressure;BME280_temperature;BME280_humidity;BME280_pressure;Samples;Min_cycle;Max_cycle;Signal;HPM_P1;HPM_P2
2022/05/04 00:00:21;;;;;;;8.48;6.35;;;;;;;2.59;76.62;93487.88;5047117;28;20028;-46
2022/05/04 00:02:46;;;;;;;11.57;7.50;;;;;;;2.54;77.68;93507.66;5047174;28;20020;-48
2022/05/04 00:05:12;;;;;;;11.23;7.43;;;;;;;2.49;78.43;93494.81;5046656;28;20027;-48
2022/05/04 00:07:38;;;;;;;10.57;6.70;;;;;;;2.70;79.11;93493.31;5046990;28;20045;-47
2022/05/04 00:10:04;;;;;;;13.32;7.95;;;;;;;2.65;78.44;93502.97;5047027;28;20524;-48
2022/05/04 00:12:30;;;;;;;13.73;8.38;;;;;;;2.47;79.16;93503.47;5047248;28;20029;-49
2022/05/04 00:14:56;;;;;;;26.70;8.32;;;;;;;2.48;79.51;93501.47;5047007;28;20028;-47
2022/05/04 00:17:21;;;;;;;12.35;8.48;;;;;;;2.56;79.30;93502.47;5047109;28;20017;-47
2022/05/04 00:19:47;;;;;;;13.18;7.65;;;;;;;2.64;77.90;93506.22;5047192;28;20032;-46
2022/05/04 00:22:19;;;;;;;12.27;7.80;;;;;;;2.49;78.07;93503.72;5046866;28;20028;-47
2022/05/04 00:24:45;;;;;;;17.52;7.25;;;;;;;2.36;78.65;93498.00;5046902;28;20479;-47
2022/05/04 00:27:11;;;;;;;33.92;10.25;;;;;;;2.41;80.22;93510.91;5046798;28;20021;-47
2022/05/04 00:29:37;;;;;;;63.05;14.82;;;;;;;2.41;80.73;93500.00;5047093;28;20025;-47
2022/05/04 00:32:02;;;;;;;63.38;13.23;;;;;;;2.55;81.22;93501.00;5046734;28;20490;-46
2022/05/04 00:34:28;;;;;;;39.45;10.30;;;;;;;2.72;80.63;93502.47;5047059;27;20021;-49
2022/05/04 00:36:53;;;;;;;43.95;10.15;;;;;;;2.62;80.48;93508.69;5046588;28;20025;-47
2022/05/04 00:39:19;;;;;;;51.78;10.15;;;;;;;2.50;80.57;93501.72;5048541;28;20029;-49
2022/05/04 00:41:44;;;;;;;28.35;11.93;;;;;;;2.53;79.59;93506.94;5050409;28;20047;-50
2022/05/04 00:44:10;;;;;;;46.20;13.63;;;;;;;2.37;80.52;93504.94;5050450;28;20024;-48
2022/05/04 00:46:35;;;;;;;28.48;11.95;;;;;;;2.43;79.16;93510.38;5050105;28;20065;-48
2022/05/04 00:49:01;;;;;;;67.80;12.00;;;;;;;2.39;79.27;93501.72;5050061;28;20021;-47
2022/05/04 00:51:27;;;;;;;31.35;11.95;;;;;;;2.36;79.44;93500.72;5050067;28;20021;-47
2022/05/04 00:53:52;;;;;;;33.22;12.05;;;;;;;2.28;78.77;93503.22;5050282;28;20021;-48
2022/05/04 00:56:18;;;;;;;36.95;14.70;;;;;;;2.25;79.27;93506.19;5050178;28;20025;-47
2022/05/04 00:58:56;;;;;;;49.78;14.07;;;;;;;2.15;79.97;93513.84;5050198;28;20028;-47
2022/05/04 01:01:24;;;;;;;34.78;12.13;;;;;;;2.27;79.56;93506.44;5049747;28;20036;-50
2022/05/04 01:03:50;;;;;;;27.48;10.43;;;;;;;2.27;78.98;93506.44;5050260;28;20142;-49
2022/05/04 01:06:15;;;;;;;29.27;11.27;;;;;;;2.13;78.75;93502.69;5049170;28;20533;-47
2022/05/04 01:08:40;;;;;;;21.73;10.75;;;;;;;1.90;80.38;93511.31;5050142;28;20090;-47
2022/05/04 01:11:06;;;;;;;22.60;11.50;;;;;;;2.00;81.20;93496.22;5049750;28;20074;-47
2022/05/04 01:13:32;;;;;;;45.50;13.63;;;;;;;2.18;80.42;93493.81;5048500;28;20021;-47
2022/05/04 01:15:57;;;;;;;18.95;11.45;;;;;;;2.13;80.74;93502.69;5050013;28;20409;-48
2022/05/04 01:18:23;;;;;;;41.75;10.45;;;;;;;2.22;80.87;93504.44;5049788;28;20044;-47
2022/05/04 01:20:48;;;;;;;45.10;12.43;;;;;;;2.32;79.46;93502.22;5049630;28;20040;-48
2022/05/04 01:23:13;;;;;;;16.30;10.98;;;;;;;2.21;79.84;93495.53;5049519;28;20029;-48
2022/05/04 01:25:39;;;;;;;17.67;9.90;;;;;;;2.16;80.08;93500.97;5049847;28;20032;-47
2022/05/04 01:28:05;;;;;;;20.42;9.65;;;;;;;2.11;79.27;93498.97;5049757;28;20024;-47
2022/05/04 01:30:32;;;;;;;23.17;9.68;;;;;;;2.15;79.19;93496.75;5049706;28;20426;-47
2022/05/04 01:32:58;;;;;;;16.25;9.25;;;;;;;2.02;78.20;93493.75;5049731;28;20033;-47
2022/05/04 01:35:23;;;;;;;14.07;8.80;;;;;;;2.09;78.12;93496.00;5049603;28;20506;-47
2022/05/04 01:37:49;;;;;;;12.73;8.52;;;;;;;2.09;78.69;93499.47;5049284;28;20082;-48
2022/05/04 01:40:14;;;;;;;11.30;8.43;;;;;;;1.89;78.84;93493.47;5049284;28;20089;-48
2022/05/04 01:42:40;;;;;;;13.30;8.35;;;;;;;1.91;78.99;93499.19;5049536;28;20024;-47
2022/05/04 01:45:08;;;;;;;16.15;9.07;;;;;;;1.80;79.79;93508.06;5049244;28;20017;-48
2022/05/04 01:47:34;;;;;;;12.63;7.75;;;;;;;1.88;78.71;93513.78;5049510;28;20036;-49
2022/05/04 01:49:59;;;;;;;15.63;8.98;;;;;;;1.93;78.76;93513.03;5048843;28;20025;-47
2022/05/04 01:52:25;;;;;;;15.85;9.85;;;;;;;1.93;79.47;93504.88;5049016;28;20077;-46
2022/05/04 01:54:51;;;;;;;50.92;14.05;;;;;;;2.04;78.68;93518.50;5049376;28;20025;-50
2022/05/04 01:57:16;;;;;;;20.70;12.15;;;;;;;1.93;79.54;93521.97;5049203;28;20017;-47
2022/05/04 01:59:41;;;;;;;23.38;11.38;;;;;;;1.82;79.59;93523.91;5048984;28;20553;-47
2022/05/04 02:02:07;;;;;;;41.67;14.13;;;;;;;1.76;79.49;93518.44;5048921;28;20028;-47
2022/05/04 02:04:34;;;;;;;40.50;17.83;;;;;;;1.50;79.76;93480.50;5048839;28;20013;-47
2022/05/04 02:07:00;;;;;;;40.85;14.40;;;;;;;1.69;80.37;93512.75;5048835;28;20029;-47
2022/05/04 02:09:27;;;;;;;33.47;14.38;;;;;;;1.58;80.45;93509.97;5049101;28;20029;-46
2022/05/04 02:11:52;;;;;;;43.28;17.38;;;;;;;1.70;80.44;93506.06;5049130;28;20020;-47
2022/05/04 02:14:19;;;;;;;30.10;11.80;;;;;;;1.62;80.71;93513.97;5048759;28;20512;-47
2022/05/04 02:16:45;;;;;;;16.85;9.25;;;;;;;1.74;80.70;93517.44;5048944;28;20417;-46
2022/05/04 02:19:10;;;;;;;12.65;8.02;;;;;;;1.74;80.99;93512.00;5048939;28;20104;-48
2022/05/04 02:21:37;;;;;;;12.93;7.47;;;;;;;1.64;80.91;93513.47;5048636;28;20029;-49
2022/05/04 02:24:02;;;;;;;11.90;8.63;;;;;;;1.53;81.40;93514.16;5048897;28;20048;-47
2022/05/04 02:26:28;;;;;;;9.40;6.78;;;;;;;1.68;81.19;93509.28;5048811;28;20545;-47
2022/05/04 02:28:54;;;;;;;11.57;6.78;;;;;;;1.74;81.47;93504.59;5048823;28;20101;-47
2022/05/04 02:31:19;;;;;;;11.52;6.85;;;;;;;1.75;81.04;93491.72;5048753;28;20513;-48
2022/05/04 02:33:47;;;;;;;8.95;6.03;;;;;;;1.94;81.17;93504.41;5048793;28;20479;-47
2022/05/04 02:38:57;;;;;;;19.30;8.70;;;;;;;1.98;80.63;93502.19;5048750;28;20125;-47
2022/05/04 02:41:23;;;;;;;48.20;11.32;;;;;;;2.06;79.60;93503.19;5048292;28;20060;-48
2022/05/04 02:43:49;;;;;;;36.22;11.30;;;;;;;2.02;79.75;93499.94;5048285;28;20025;-47
2022/05/04 02:46:19;;;;;;;33.75;12.95;;;;;;;1.89;80.44;93509.81;5048245;28;20025;-48
2022/05/04 02:48:45;;;;;;;15.40;8.45;;;;;;;1.91;80.12;93524.44;5048457;28;20029;-48
2022/05/04 02:51:11;;;;;;;16.77;7.10;;;;;;;1.85;80.05;93512.78;5048471;28;20060;-47
2022/05/04 02:53:36;;;;;;;21.98;5.88;;;;;;;1.99;79.89;93525.44;5048089;28;20053;-48
2022/05/04 02:56:02;;;;;;;30.67;6.90;;;;;;;1.85;79.80;93522.91;5048080;28;20077;-47
2022/05/04 02:58:28;;;;;;;31.52;6.88;;;;;;;1.81;80.28;93525.91;5047854;28;20036;-50
2022/05/04 03:00:54;;;;;;;27.48;6.95;;;;;;;1.86;80.47;93533.34;5047944;28;20033;-47
2022/05/04 03:03:19;;;;;;;22.23;6.38;;;;;;;1.73;80.93;93524.88;5047866;28;20100;-48
2022/05/04 03:05:44;;;;;;;20.50;6.35;;;;;;;1.66;80.28;93522.63;5047540;28;20513;-46
2022/05/04 03:08:10;;;;;;;6.32;5.10;;;;;;;1.63;80.52;93526.31;5047733;28;20086;-47
2022/05/04 03:11:54;;;;;;;15.80;6.07;;;;;;;1.61;79.96;93533.47;5047840;28;20084;-47
2022/05/04 03:13:21;;;;;;;6.50;4.95;;;;;;;1.48;80.70;93520.31;5047890;28;20029;-47
2022/05/04 03:15:46;;;;;;;7.38;5.18;;;;;;;1.58;80.99;93520.88;5047790;28;20035;-47
2022/05/04 03:18:12;;;;;;;7.05;5.40;;;;;;;1.74;80.92;93528.31;5047993;28;20017;-48
2022/05/04 03:20:37;;;;;;;5.60;4.97;;;;;;;1.72;80.84;93534.28;5047701;28;20036;-47
2022/05/04 03:23:02;;;;;;;11.77;7.38;;;;;;;1.77;80.73;93524.63;5048023;28;20029;-47
2022/05/04 03:25:28;;;;;;;14.10;7.60;;;;;;;1.70;80.56;93525.09;5047911;28;20094;-47
2022/05/04 03:27:53;;;;;;;10.93;6.32;;;;;;;1.71;80.72;93543.66;5047954;28;20417;-48
2022/05/04 03:30:19;;;;;;;13.63;8.52;;;;;;;1.87;80.76;93539.50;5047905;28;20478;-49
2022/05/04 03:32:44;;;;;;;8.43;6.18;;;;;;;1.93;80.39;93548.44;5047802;28;20054;-48
2022/05/04 03:35:10;;;;;;;9.05;6.88;;;;;;;1.94;80.41;93552.66;5047567;28;20048;-48
2022/05/04 03:37:35;;;;;;;7.50;5.50;;;;;;;1.90;80.31;93539.28;5047650;28;20153;-49
2022/05/04 03:40:00;;;;;;;7.18;5.07;;;;;;;2.06;80.60;93559.59;5047857;28;20029;-48
2022/05/04 03:42:26;;;;;;;9.27;6.55;;;;;;;2.11;80.28;93567.81;5047382;28;20478;-47
2022/05/04 03:44:51;;;;;;;7.63;5.50;;;;;;;2.17;79.99;93560.38;5047712;28;20025;-48
2022/05/04 03:47:17;;;;;;;6.40;5.00;;;;;;;1.95;80.15;93543.25;5047286;28;20379;-47
2022/05/04 03:49:42;;;;;;;6.65;5.07;;;;;;;2.06;80.11;93563.09;5046472;28;20017;-49
2022/05/04 03:52:09;;;;;;;6.20;4.65;;;;;;;2.15;80.13;93564.84;5047254;28;20463;-49
2022/05/04 03:54:34;;;;;;;8.68;5.72;;;;;;;2.24;80.52;93567.34;5047237;28;20025;-47
2022/05/04 03:57:00;;;;;;;20.63;11.73;;;;;;;2.26;80.52;93575.75;5047538;28;20645;-48
2022/05/04 03:59:25;;;;;;;34.30;19.75;;;;;;;2.24;81.23;93575.50;5047116;28;20036;-46
2022/05/04 04:01:51;;;;;;;29.55;16.23;;;;;;;2.29;79.96;93570.09;5047418;28;20087;-47
2022/05/04 04:04:16;;;;;;;19.48;12.35;;;;;;;2.30;81.14;93571.56;5047401;28;20054;-49
2022/05/04 04:06:41;;;;;;;15.60;10.32;;;;;;;2.36;80.83;93579.75;5046813;27;20442;-47
2022/05/04 04:09:07;;;;;;;12.38;7.93;;;;;;;2.40;81.01;93571.34;5047369;28;20410;-48
2022/05/04 04:11:32;;;;;;;12.27;7.97;;;;;;;2.43;81.17;93571.09;5047033;28;20566;-49
2022/05/04 04:13:58;;;;;;;12.93;8.80;;;;;;;2.62;80.47;93579.56;5049500;28;20021;-50
2022/05/04 04:16:25;;;;;;;9.25;6.95;;;;;;;2.72;79.65;93572.59;5050729;28;20024;-47
2022/05/04 04:18:50;;;;;;;7.70;6.03;;;;;;;2.91;79.45;93574.34;5050847;28;20056;-50
2022/05/04 04:24:00;;;;;;;9.25;5.20;;;;;;;3.06;78.77;93569.38;5050821;28;20064;-50
2022/05/04 04:26:25;;;;;;;13.75;8.90;;;;;;;3.10;77.77;93573.84;5050619;28;20045;-47
2022/05/04 04:28:51;;;;;;;10.27;7.75;;;;;;;3.23;78.19;93571.38;5049592;28;20032;-47
2022/05/04 04:31:16;;;;;;;11.40;8.63;;;;;;;3.31;77.70;93572.34;5050605;28;20044;-47
2022/05/04 04:33:42;;;;;;;27.20;17.77;;;;;;;3.34;77.55;93571.31;5050686;28;20028;-48
2022/05/04 04:36:08;;;;;;;22.42;15.27;;;;;;;3.52;77.37;93578.97;5050240;28;20477;-47
2022/05/04 04:38:33;;;;;;;24.27;13.95;;;;;;;3.46;77.12;93579.00;5050436;28;20025;-47
2022/05/04 04:40:59;;;;;;;23.02;16.13;;;;;;;3.51;76.73;93580.97;5049413;28;20033;-50
2022/05/04 04:43:25;;;;;;;22.10;15.23;;;;;;;3.52;77.67;93579.72;5050399;28;20017;-46
2022/05/04 04:45:50;;;;;;;25.48;17.38;;;;;;;3.58;77.50;93583.19;5050541;28;20033;-48
2022/05/04 04:48:17;;;;;;;22.15;15.45;;;;;;;3.71;77.63;93582.66;5050043;28;20425;-48
2022/05/04 04:50:45;;;;;;;23.67;15.55;;;;;;;3.77;77.73;93588.84;5050087;28;20055;-47
2022/05/04 04:53:11;;;;;;;41.45;25.13;;;;;;;3.74;77.72;93584.38;5050072;28;20409;-48
2022/05/04 04:55:37;;;;;;;34.63;21.70;;;;;;;3.77;77.72;93589.59;5050247;28;20033;-46
2022/05/04 04:58:02;;;;;;;13.48;10.32;;;;;;;3.70;77.65;93589.38;5048759;28;20078;-47
2022/05/04 05:00:28;;;;;;;9.93;7.78;;;;;;;3.80;77.78;93580.41;5050177;28;20029;-47
2022/05/04 05:02:53;;;;;;;12.05;8.73;;;;;;;4.03;77.38;93580.31;5049857;28;20457;-49
2022/05/04 05:05:19;;;;;;;8.55;5.50;;;;;;;4.16;78.09;93585.97;5049787;28;20017;-47
2022/05/04 05:07:44;;;;;;;5.05;4.40;;;;;;;4.21;77.07;93561.34;5049626;28;20060;-47
2022/05/04 05:10:10;;;;;;;8.00;6.07;;;;;;;4.59;77.23;93582.25;5049840;28;20100;-47
2022/05/04 05:12:35;;;;;;;18.20;13.75;;;;;;;5.10;77.38;93574.41;5049951;28;20033;-47
2022/05/04 05:17:58;;;;;;;23.80;12.77;;;;;;;6.24;72.34;93570.25;5037333;28;20087;-48
2022/05/04 05:20:24;;;;;;;50.03;27.27;;;;;;;6.79;71.15;93572.25;5049828;28;20509;-47
2022/05/04 05:22:49;;;;;;;35.70;17.88;;;;;;;7.21;69.09;93569.88;5049677;28;20028;-48
2022/05/04 05:25:15;;;;;;;28.80;15.55;;;;;;;7.71;68.08;93580.72;5049057;28;20649;-47
2022/05/04 05:27:40;;;;;;;7.18;5.90;;;;;;;8.45;66.36;93579.59;5049857;28;20570;-48
2022/05/04 05:30:06;;;;;;;4.70;3.90;;;;;;;9.04;64.17;93584.31;5049716;28;20022;-48
2022/05/04 05:32:32;;;;;;;4.03;3.63;;;;;;;9.24;63.34;93584.84;5049412;28;20021;-47
2022/05/04 05:34:57;;;;;;;7.85;4.82;;;;;;;9.57;62.41;93584.78;5049429;28;20078;-47
2022/05/04 05:37:23;;;;;;;8.02;5.43;;;;;;;9.72;61.46;93584.19;5049242;28;20021;-47
2022/05/04 05:39:48;;;;;;;6.88;4.75;;;;;;;9.69;60.75;93576.97;5049337;28;20025;-47
2022/05/04 05:42:14;;;;;;;5.68;4.35;;;;;;;9.50;61.82;93584.72;5049202;28;20033;-47
2022/05/04 05:44:39;;;;;;;8.10;5.57;;;;;;;9.38;62.08;93584.25;5049213;28;20029;-47
2022/05/04 05:47:05;;;;;;;7.72;5.82;;;;;;;9.16;61.95;93584.78;5049514;28;20025;-47
2022/05/04 05:49:31;;;;;;;12.25;9.25;;;;;;;9.02;62.91;93577.84;5049134;28;20025;-48
2022/05/04 05:51:56;;;;;;;11.07;7.90;;;;;;;8.88;64.63;93579.91;5049439;28;20021;-47
2022/05/04 05:54:21;;;;;;;8.98;6.45;;;;;;;8.99;64.79;93582.41;5049029;28;20518;-47
2022/05/04 05:56:47;;;;;;;12.25;8.38;;;;;;;9.13;64.71;93586.59;5047723;28;20024;-49
2022/05/04 05:59:13;;;;;;;12.70;9.98;;;;;;;9.33;65.78;93589.91;5049307;28;20409;-49
2022/05/04 06:01:38;;;;;;;12.05;7.97;;;;;;;9.63;63.38;93577.13;5049227;28;20386;-47
2022/05/04 06:04:04;;;;;;;14.27;8.25;;;;;;;10.00;62.91;93580.69;5048908;28;20462;-47
2022/05/04 06:06:30;;;;;;;10.38;8.57;;;;;;;10.46;62.87;93572.16;5048292;28;20171;-47
2022/05/04 06:08:55;;;;;;;9.27;7.88;;;;;;;11.01;60.96;93577.31;5049118;28;20108;-47
2022/05/04 06:11:21;;;;;;;7.85;6.35;;;;;;;10.97;60.15;93582.47;5048801;28;20056;-48
2022/05/04 06:13:51;;;;;;;8.00;7.18;;;;;;;10.90;61.21;93586.69;5048730;28;20021;-47
2022/05/04 06:16:16;;;;;;;9.35;5.70;;;;;;;11.09;61.58;93580.84;5048952;28;20054;-47
2022/05/04 06:18:42;;;;;;;15.25;5.90;;;;;;;11.11;60.49;93578.28;5048711;28;20067;-48
2022/05/04 06:21:07;;;;;;;5.10;4.57;;;;;;;11.10;62.14;93587.84;5048644;28;20025;-46
2022/05/04 06:23:33;;;;;;;4.60;4.00;;;;;;;11.06;61.27;93577.16;5048719;28;20029;-48
2022/05/04 06:25:58;;;;;;;4.82;4.22;;;;;;;10.90;61.38;93585.94;5048861;28;20029;-48
2022/05/04 06:28:23;;;;;;;5.68;4.07;;;;;;;10.96;61.73;93583.78;5048603;28;20025;-47
2022/05/04 06:36:17;;;;;;;5.03;4.57;;;;;;;11.60;61.78;93581.50;5047146;28;20056;-50
2022/05/04 06:38:43;;;;;;;4.53;3.85;;;;;;;11.88;60.94;93586.88;5048673;28;20049;-48
2022/05/04 06:41:08;;;;;;;7.28;4.45;;;;;;;12.30;59.70;93580.91;5048609;28;20048;-47
2022/05/04 06:43:35;;;;;;;5.90;5.30;;;;;;;12.37;59.54;93578.13;5048616;28;20422;-47
2022/05/04 06:46:01;;;;;;;5.50;4.38;;;;;;;12.68;57.35;93579.53;5048229;28;20025;-48
2022/05/04 06:48:27;;;;;;;5.15;4.38;;;;;;;12.98;56.93;93581.44;5048222;28;20507;-47
2022/05/04 06:50:52;;;;;;;9.20;7.68;;;;;;;13.08;57.16;93579.53;5048503;28;20065;-51
2022/05/04 06:53:17;;;;;;;11.52;6.00;;;;;;;13.27;56.29;93581.88;5048114;28;20070;-48
2022/05/04 06:55:43;;;;;;;6.78;5.75;;;;;;;13.45;56.21;93570.28;5048149;28;20064;-47
2022/05/04 06:58:08;;;;;;;4.00;3.60;;;;;;;13.30;54.41;93583.50;5047053;28;20036;-48
2022/05/04 07:00:34;;;;;;;4.88;4.07;;;;;;;13.15;56.59;93581.56;5027693;28;20034;-47
2022/05/04 07:02:59;;;;;;;5.47;4.97;;;;;;;13.25;55.97;93568.56;5026954;28;20025;-49
2022/05/04 07:05:25;;;;;;;4.97;4.45;;;;;;;13.26;54.94;93574.84;5037276;28;20052;-47
2022/05/04 07:07:50;;;;;;;6.90;4.72;;;;;;;13.47;55.57;93573.22;5047855;28;20466;-48
2022/05/04 07:10:16;;;;;;;5.93;4.68;;;;;;;13.50;53.82;93574.13;5047900;28;20101;-47
2022/05/04 07:12:41;;;;;;;4.82;3.60;;;;;;;13.74;53.07;93581.75;5048158;28;20089;-49
2022/05/04 07:15:07;;;;;;;6.00;4.18;;;;;;;14.21;52.97;93575.22;5047766;28;20704;-51
2022/05/04 07:17:32;;;;;;;10.23;4.82;;;;;;;14.84;52.50;93570.72;5048027;28;20013;-48
2022/05/04 07:19:58;;;;;;;4.70;3.63;;;;;;;15.74;49.32;93574.34;5048028;28;20040;-47
2022/05/04 07:22:23;;;;;;;5.88;4.22;;;;;;;16.78;47.46;93563.31;5048045;28;20025;-48
2022/05/04 07:24:49;;;;;;;3.75;3.45;;;;;;;17.89;44.01;93564.28;5047943;28;20043;-48
2022/05/04 07:27:15;;;;;;;4.45;3.35;;;;;;;18.36;41.54;93567.47;5047623;28;20023;-48
2022/05/04 07:29:42;;;;;;;5.43;4.90;;;;;;;18.72;42.27;93569.91;5047644;28;20029;-48
2022/05/04 07:32:08;;;;;;;8.40;7.22;;;;;;;19.79;40.61;93568.38;5047834;28;20093;-49
2022/05/04 07:34:33;;;;;;;9.77;6.22;;;;;;;19.88;39.47;93564.72;5047684;28;20519;-49
2022/05/04 07:36:59;;;;;;;3.15;2.70;;;;;;;19.88;37.59;93568.25;5047481;28;20028;-48
2022/05/04 07:42:26;;;;;;;3.78;3.47;;;;;;;19.85;37.79;93580.69;5047613;28;20093;-48
2022/05/04 07:45:03;;;;;;;5.95;3.58;;;;;;;19.54;41.37;93578.06;5047769;28;20100;-49
2022/05/04 07:47:31;;;;;;;3.95;3.58;;;;;;;19.25;39.54;93582.44;5046881;28;20028;-47
2022/05/04 07:49:56;;;;;;;6.03;3.88;;;;;;;20.48;40.36;93573.28;5047640;28;20036;-49
2022/05/04 07:52:22;;;;;;;5.63;3.97;;;;;;;22.12;35.99;93562.25;5047341;28;20021;-46
2022/05/04 07:54:48;;;;;;;5.30;3.47;;;;;;;23.64;33.30;93579.13;5047294;27;20112;-49
2022/05/04 07:57:13;;;;;;;3.92;3.53;;;;;;;24.37;30.40;93574.78;5047380;28;20033;-47
2022/05/04 07:59:38;;;;;;;5.13;4.63;;;;;;;24.96;30.82;93567.56;5047445;28;20390;-47
2022/05/04 08:04:49;;;;;;;4.03;2.90;;;;;;;25.81;28.13;93568.22;5046874;28;20024;-46
2022/05/04 08:07:16;;;;;;;2.97;2.75;;;;;;;25.62;29.11;93580.19;5046898;28;20518;-48
2022/05/04 08:09:43;;;;;;;9.35;6.88;;;;;;;25.92;29.19;93578.56;5047115;28;20052;-48
2022/05/04 08:12:11;;;;;;;11.65;7.78;;;;;;;26.66;29.32;93581.41;5047017;28;20044;-47
2022/05/04 08:14:37;;;;;;;3.50;3.20;;;;;;;26.75;28.27;93583.19;5047321;28;20039;-48
2022/05/04 08:17:03;;;;;;;2.70;2.50;;;;;;;27.55;25.01;93578.88;5047243;28;20037;-48
2022/05/04 08:19:28;;;;;;;6.40;3.47;;;;;;;27.97;25.08;93579.50;5047222;28;20534;-47
2022/05/04 08:21:54;;;;;;;3.70;3.40;;;;;;;28.30;25.53;93582.72;5047004;28;20036;-48
2022/05/04 08:24:20;;;;;;;3.63;3.33;;;;;;;28.40;24.82;93576.59;5046809;28;20078;-47
2022/05/04 08:26:46;;;;;;;4.47;3.50;;;;;;;28.86;24.01;93577.25;5046820;28;20088;-47
2022/05/04 08:29:11;;;;;;;4.10;3.70;;;;;;;29.65;24.02;93583.66;5046834;28;20032;-50
2022/05/04 08:31:38;;;;;;;3.53;3.22;;;;;;;30.06;22.80;93571.16;5046821;28;20025;-49
2022/05/04 08:34:03;;;;;;;3.70;2.90;;;;;;;30.16;23.34;93564.97;5047139;28;20033;-47
2022/05/04 08:36:29;;;;;;;4.03;2.78;;;;;;;30.40;21.43;93563.44;5046673;28;20024;-48
2022/05/04 08:38:54;;;;;;;4.47;3.08;;;;;;;29.95;22.38;93563.78;5046592;28;20032;-47
2022/05/04 08:41:22;;;;;;;6.90;5.97;;;;;;;30.34;22.00;93551.19;5046741;28;20025;-48
2022/05/04 08:43:50;;;;;;;3.33;2.35;;;;;;;30.44;21.86;93557.09;5046707;28;20085;-49
2022/05/04 08:46:16;;;;;;;6.40;5.80;;;;;;;30.99;21.93;93561.81;5046659;28;20032;-48
2022/05/04 08:48:43;;;;;;;3.55;3.22;;;;;;;30.86;20.15;93555.16;5045755;28;20017;-49
2022/05/04 08:51:10;;;;;;;3.00;2.78;;;;;;;30.35;21.36;93549.75;5046545;28;20051;-48
2022/05/04 08:53:36;;;;;;;3.35;2.95;;;;;;;30.78;21.38;93551.38;5046865;28;20037;-50
2022/05/04 08:56:02;;;;;;;3.30;3.00;;;;;;;31.09;20.60;93557.03;5046521;28;20489;-48
2022/05/04 08:58:28;;;;;;;4.43;3.13;;;;;;;30.82;20.73;93557.88;5045260;28;20028;-48
2022/05/04 09:00:53;;;;;;;3.15;2.17;;;;;;;30.97;19.95;93553.22;5047962;28;20033;-48
2022/05/04 09:03:20;;;;;;;3.38;2.60;;;;;;;30.57;18.98;93538.84;5049853;28;20025;-47
2022/05/04 09:05:47;;;;;;;4.43;2.53;;;;;;;30.65;20.86;93545.44;5049492;28;20051;-49
2022/05/04 09:08:50;;;;;;;5.40;2.90;;;;;;;30.81;22.14;93535.75;5050099;28;20025;-48
2022/05/04 09:11:16;;;;;;;3.65;2.40;;;;;;;30.54;19.52;93548.75;5050109;28;20029;-48
2022/05/04 09:13:48;;;;;;;2.95;2.65;;;;;;;31.15;20.47;93547.84;5050060;28;20085;-51
2022/05/04 09:16:31;;;;;;;5.45;2.50;;;;;;;31.48;20.47;93540.63;5050021;28;20409;-45
2022/05/04 09:19:00;;;;;;;2.20;1.98;;;;;;;31.41;20.85;93536.94;5049947;28;20423;-47
2022/05/04 09:21:25;;;;;;;;;;;;;;;31.27;20.23;93539.53;5050099;28;20515;-49
2022/05/04 09:23:54;;;;;;;3.20;2.15;;;;;;;31.95;19.57;93546.44;5048445;28;19908;-49
2022/05/04 09:26:22;;;;;;;4.13;2.50;;;;;;;31.45;19.59;93542.03;5049471;28;20078;-46
2022/05/04 09:29:01;;;;;;;3.20;2.08;;;;;;;31.03;20.53;93544.78;5049585;28;20025;-48
2022/05/04 09:31:28;;;;;;;2.65;2.30;;;;;;;31.14;20.61;93535.00;5049508;28;20024;-46
2022/05/04 09:33:58;;;;;;;3.50;2.40;;;;;;;31.93;19.44;93532.13;5049814;28;20510;-45
2022/05/04 09:45:11;;;;;;;4.90;2.28;;;;;;;31.57;20.53;93525.09;5049570;28;20055;-47
2022/05/04 09:47:41;;;;;;;3.88;2.38;;;;;;;32.24;19.33;93527.59;5049204;28;20521;-47
2022/05/04 09:50:09;;;;;;;2.70;2.05;;;;;;;32.51;18.06;93532.28;5049467;28;20024;-48
2022/05/04 09:52:56;;;;;;;2.63;2.23;;;;;;;32.37;18.84;93529.22;5049529;28;20115;-48
2022/05/04 09:55:24;;;;;;;2.45;2.22;;;;;;;32.05;17.36;93531.63;5049393;28;20431;-45
2022/05/04 09:57:50;;;;;;;5.88;2.15;;;;;;;31.36;18.26;93515.44;5048935;28;20033;-49
2022/05/04 10:00:19;;;;;;;9.25;3.15;;;;;;;29.70;19.32;93519.03;5049096;28;20053;-49
2022/05/04 10:02:46;;;;;;;3.45;2.67;;;;;;;30.31;22.07;93515.50;5049357;28;20037;-47
2022/05/04 10:05:11;;;;;;;5.72;2.60;;;;;;;30.95;20.07;93516.13;5048935;28;20033;-47
2022/05/04 10:07:37;;;;;;;2.72;2.20;;;;;;;30.98;19.94;93500.47;5048875;28;20041;-48
2022/05/04 10:10:06;;;;;;;6.75;2.10;;;;;;;30.43;20.30;93498.66;5049269;28;20029;-47
2022/05/04 10:12:41;;;;;;;5.28;2.72;;;;;;;30.75;20.59;93507.13;5048679;28;20032;-48
2022/05/04 10:15:10;;;;;;;2.88;2.50;;;;;;;30.62;20.97;93514.72;5049111;28;20035;-50
2022/05/04 10:17:37;;;;;;;;;;;;;;;30.66;19.77;93503.41;5049269;28;20504;-47
2022/05/04 10:20:09;;;;;;;3.65;2.30;;;;;;;30.15;21.54;93503.72;5047558;28;19915;-50
2022/05/04 10:22:58;;;;;;;9.93;6.65;;;;;;;29.95;21.21;93498.31;5049129;27;20073;-48
2022/05/04 10:25:26;;;;;;;2.67;2.35;;;;;;;30.27;21.59;93509.69;5048991;28;20172;-47
2022/05/04 10:28:05;;;;;;;15.45;6.32;;;;;;;29.72;19.47;93508.41;5048984;28;20025;-47
2022/05/04 10:30:31;;;;;;;1.83;1.73;;;;;;;29.22;18.46;93496.53;5048552;28;20029;-46
2022/05/04 10:32:58;;;;;;;2.10;1.90;;;;;;;29.12;18.89;93492.69;5048398;28;20032;-48
2022/05/04 10:35:42;;;;;;;12.80;7.88;;;;;;;28.78;21.49;93486.09;5048782;28;20028;-48
2022/05/04 10:38:33;;;;;;;11.02;5.72;;;;;;;28.20;22.21;93491.53;5047516;28;20025;-48
2022/05/04 10:41:06;;;;;;;1.50;1.40;;;;;;;28.14;20.39;93485.69;5048807;28;20112;-47
2022/05/04 10:43:40;;;;;;;11.18;5.30;;;;;;;28.03;21.78;93481.13;5048600;28;20081;-46
2022/05/04 10:46:18;;;;;;;2.13;1.83;;;;;;;28.50;21.94;93483.88;5047470;28;20477;-48
2022/05/04 10:49:04;;;;;;;1.90;1.52;;;;;;;28.50;20.96;93478.22;5048602;28;20065;-47
2022/05/04 10:51:30;;;;;;;2.58;2.38;;;;;;;27.25;21.99;93490.66;5048048;28;20113;-46
2022/05/04 10:54:18;;;;;;;3.75;2.70;;;;;;;27.22;23.81;93486.34;5048512;28;20111;-48
2022/05/04 10:56:51;;;;;;;3.35;2.60;;;;;;;28.20;24.34;93485.13;5048163;28;20420;-47
2022/05/04 10:59:27;;;;;;;4.40;3.25;;;;;;;28.64;22.70;93485.69;5048142;28;20494;-47
2022/05/04 11:02:00;;;;;;;3.25;1.83;;;;;;;28.89;21.44;93480.00;5030421;28;20029;-47
2022/05/04 11:04:25;;;;;;;7.05;3.95;;;;;;;28.77;21.73;93481.78;5048003;28;20032;-47
2022/05/04 11:06:53;;;;;;;1.80;1.70;;;;;;;28.64;20.94;93475.06;5047785;28;20450;-47
2022/05/04 11:09:42;;;;;;;2.60;1.98;;;;;;;27.74;21.28;93468.16;5048220;28;20413;-47
2022/05/04 11:12:10;;;;;;;2.25;1.95;;;;;;;28.02;23.16;93479.69;5048281;28;20036;-47
2022/05/04 11:14:35;;;;;;;3.43;3.13;;;;;;;28.10;21.03;93479.19;5048230;28;20024;-50
2022/05/04 11:17:03;;;;;;;5.28;2.60;;;;;;;27.75;23.38;93466.78;5048154;28;20021;-47
2022/05/04 11:19:32;;;;;;;5.72;3.40;;;;;;;26.83;22.66;93472.97;5046498;28;20068;-47
2022/05/04 11:21:58;;;;;;;6.55;3.75;;;;;;;26.35;25.13;93471.25;5047721;28;20056;-48
2022/05/04 11:24:27;;;;;;;3.35;2.38;;;;;;;26.03;25.22;93472.91;5047298;28;20440;-48
2022/05/04 11:26:53;;;;;;;3.42;2.67;;;;;;;26.28;23.72;93464.66;5047593;28;20104;-47
2022/05/04 11:29:21;;;;;;;4.57;3.17;;;;;;;25.38;23.93;93473.19;5047645;28;20138;-48
2022/05/04 11:31:54;;;;;;;5.50;3.80;;;;;;;24.46;25.03;93463.72;5047895;28;20039;-48
2022/05/04 11:34:24;;;;;;;3.35;3.05;;;;;;;24.24;25.59;93468.38;5047883;28;20037;-48
2022/05/04 11:36:51;;;;;;;5.70;1.80;;;;;;;24.68;26.04;93456.19;5047445;28;20059;-50
2022/05/04 11:39:21;;;;;;;2.58;1.98;;;;;;;24.66;26.99;93459.66;5047765;28;20040;-48
2022/05/04 11:41:51;;;;;;;1.98;1.30;;;;;;;24.75;24.53;93455.81;5047797;28;20029;-51
2022/05/04 11:44:18;;;;;;;1.40;1.30;;;;;;;24.62;21.74;93451.00;5047767;27;20028;-47
2022/05/04 11:46:48;;;;;;;2.40;2.13;;;;;;;24.19;25.07;93447.03;5047790;28;20029;-49
2022/05/04 11:49:14;;;;;;;2.10;1.90;;;;;;;23.79;27.17;93466.38;5047689;28;20105;-48
2022/05/04 11:51:40;;;;;;;5.32;1.77;;;;;;;23.61;26.31;93462.72;5047632;28;20486;-48
2022/05/04 11:54:05;;;;;;;4.57;2.28;;;;;;;23.86;28.70;93456.84;5047790;28;20081;-49
2022/05/04 11:56:31;;;;;;;1.70;1.38;;;;;;;24.08;26.44;93460.66;5047487;28;20485;-47
2022/05/04 11:58:57;;;;;;;6.35;3.20;;;;;;;23.48;26.88;93448.72;5047585;28;20029;-49
2022/05/04 12:01:23;;;;;;;14.00;3.10;;;;;;;23.50;29.21;93457.28;5047759;28;20033;-47